Olinghouse, Nevada
Current Conditions -  °F | °C
As of 8:55 PM on Wednesday 17 Dec 2014 (Local Time) from KRNO Reporting Station
Broken Clouds Broken Clouds  
Wind Chill: 42°   Ceiling: 12000
Heat Index: 42°   Visibility: 10mi
Dew Point: 28°   Wind: 3mph
Humidity: 58%   Direction: NA
Pressure: 30.02"   Gusts: NA
Location:  39.7287°N, 119.26°W
Report Text: KRNO 180455Z VRB03KT 10SM FEW065 BKN120 06/M02 A3002 RMK AO2 SLP162 T00561022
Loading
Personal Weather Stations






























Interactive Weather Map New forecast layout! Learn more

10-Day Weather Forecast

Advertisements
Track Severe Weather on mobile